Time;durP1;ratioP1;P1;durP2;ratioP2;P2;SDS_P1;SDS_P2;PMS_P1;PMS_P2;Temp;Humidity;BMP_temperature;BMP_pressure;BME280_temperature;BME280_humidity;BME280_pressure;Samples;Min_cycle;Max_cycle;Signal;HPM_P1;HPM_P2
2023/09/17 00:02:58;;;;;;;10.60;9.43;;;21.30;87.20;;;;;;10503738;28;20772;-67
2023/09/17 00:07:59;;;;;;;10.23;9.10;;;21.30;87.20;;;;;;10496714;28;20421;-67
2023/09/17 00:12:59;;;;;;;11.90;9.00;;;21.30;87.20;;;;;;10502756;28;20505;-67
2023/09/17 00:18:00;;;;;;;11.20;8.70;;;21.30;87.30;;;;;;10499158;28;20401;-67
2023/09/17 00:23:01;;;;;;;11.43;9.63;;;21.20;87.20;;;;;;10497871;28;20414;-66
2023/09/17 00:28:01;;;;;;;10.80;9.40;;;21.20;87.20;;;;;;10503966;28;20915;-67
2023/09/17 00:33:02;;;;;;;10.57;9.20;;;21.20;87.20;;;;;;10508564;28;20414;-67
2023/09/17 00:38:03;;;;;;;11.53;9.50;;;21.20;87.30;;;;;;10516481;28;20412;-67
2023/09/17 00:43:04;;;;;;;10.83;9.37;;;21.10;87.20;;;;;;10516323;28;20424;-67
2023/09/17 00:48:05;;;;;;;11.13;9.47;;;21.10;87.20;;;;;;10510625;28;20893;-66
2023/09/17 00:53:06;;;;;;;11.10;9.40;;;21.10;87.20;;;;;;10506959;28;20410;-67
2023/09/17 00:58:07;;;;;;;11.90;9.80;;;21.10;87.20;;;;;;10508422;28;20904;-66
2023/09/17 01:03:08;;;;;;;11.48;9.02;;;21.10;87.20;;;;;;10511402;28;20403;-67
2023/09/17 01:08:10;;;;;;;9.98;8.88;;;21.10;87.20;;;;;;10514189;28;20402;-67
2023/09/17 01:13:11;;;;;;;11.35;9.00;;;21.10;87.20;;;;;;10505554;28;20405;-67
2023/09/17 01:18:12;;;;;;;11.32;9.35;;;21.10;87.20;;;;;;10493628;28;20397;-67
2023/09/17 01:23:26;;;;;;;11.65;8.70;;;21.00;87.20;;;;;;10491271;28;20773;-67
2023/09/17 01:28:27;;;;;;;11.02;8.98;;;21.00;87.30;;;;;;10505238;28;21113;-66
2023/09/17 01:33:28;;;;;;;10.23;8.90;;;21.00;87.30;;;;;;10508372;28;20402;-67
2023/09/17 01:38:38;;;;;;;10.17;8.70;;;20.90;87.30;;;;;;10515873;28;20390;-67
2023/09/17 01:43:40;;;;;;;10.45;8.98;;;21.00;87.50;;;;;;10506299;28;20449;-67
2023/09/17 01:48:42;;;;;;;10.73;9.50;;;21.10;87.50;;;;;;10502985;28;20602;-68
2023/09/17 01:53:45;;;;;;;10.40;8.82;;;20.90;87.40;;;;;;10503066;28;20415;-67
2023/09/17 01:58:46;;;;;;;11.15;9.02;;;21.00;87.50;;;;;;10512652;28;20405;-67
2023/09/17 02:03:46;;;;;;;10.70;9.23;;;20.90;87.40;;;;;;10501960;28;20412;-67
2023/09/17 02:08:47;;;;;;;11.10;9.50;;;20.90;87.50;;;;;;10508683;28;20893;-68
2023/09/17 02:13:48;;;;;;;10.27;9.18;;;20.90;87.50;;;;;;10494689;28;20410;-66
2023/09/17 02:18:51;;;;;;;11.25;9.40;;;20.90;87.60;;;;;;10494821;28;20405;-67
2023/09/17 02:23:52;;;;;;;10.25;9.15;;;20.80;87.60;;;;;;10497822;28;20400;-65
2023/09/17 02:28:52;;;;;;;11.10;9.00;;;20.90;87.60;;;;;;10502927;28;21114;-67
2023/09/17 02:33:53;;;;;;;11.85;9.63;;;20.80;87.60;;;;;;10499803;28;20449;-67
2023/09/17 02:38:59;;;;;;;10.82;9.50;;;20.80;87.60;;;;;;10505814;28;20409;-68
2023/09/17 02:44:00;;;;;;;10.80;9.13;;;20.80;87.60;;;;;;10505440;28;20400;-67
2023/09/17 02:49:00;;;;;;;11.13;9.25;;;20.80;87.70;;;;;;10504841;28;20608;-67
2023/09/17 02:54:01;;;;;;;11.07;9.30;;;20.80;87.80;;;;;;10510173;28;20476;-67
2023/09/17 02:59:02;;;;;;;10.73;9.38;;;20.80;87.70;;;;;;10500433;28;20402;-66
2023/09/17 03:04:03;;;;;;;12.60;9.70;;;20.70;87.80;;;;;;10494995;28;20404;-66
2023/09/17 03:09:11;;;;;;;12.10;9.77;;;20.70;87.80;;;;;;10501050;28;20391;-67
2023/09/17 03:14:11;;;;;;;10.90;9.30;;;20.70;87.80;;;;;;10500074;28;20393;-67
2023/09/17 03:19:12;;;;;;;11.73;9.57;;;20.70;87.90;;;;;;10499315;28;21297;-67
2023/09/17 03:24:15;;;;;;;10.23;9.13;;;20.70;87.90;;;;;;10492987;28;20393;-67
2023/09/17 03:29:15;;;;;;;10.95;9.75;;;20.60;87.90;;;;;;10496099;28;20958;-68
2023/09/17 03:34:16;;;;;;;11.80;9.53;;;20.70;88.00;;;;;;10495489;28;20405;-66
2023/09/17 03:39:17;;;;;;;10.90;9.47;;;20.70;88.00;;;;;;10502045;28;20950;-68
2023/09/17 03:44:17;;;;;;;10.90;9.53;;;20.60;88.10;;;;;;10496363;28;20455;-67
2023/09/17 03:49:23;;;;;;;11.70;9.43;;;20.60;88.10;;;;;;10503363;28;20784;-66
2023/09/17 03:54:24;;;;;;;11.48;9.80;;;20.60;88.10;;;;;;10503046;28;20914;-67
2023/09/17 03:59:25;;;;;;;12.40;10.10;;;20.60;88.10;;;;;;10505681;28;20413;-66
2023/09/17 04:04:25;;;;;;;12.48;10.35;;;20.60;88.10;;;;;;10505174;28;20567;-67
2023/09/17 04:09:26;;;;;;;11.25;9.45;;;20.60;88.20;;;;;;10501963;28;20458;-67
2023/09/17 04:14:28;;;;;;;11.70;10.20;;;20.60;88.20;;;;;;10502687;28;20402;-67
2023/09/17 04:19:29;;;;;;;12.57;10.15;;;20.60;88.20;;;;;;10498515;28;20496;-67
2023/09/17 04:24:31;;;;;;;10.88;9.75;;;20.60;88.30;;;;;;10499635;28;20956;-67
2023/09/17 04:29:32;;;;;;;12.80;10.10;;;20.60;88.20;;;;;;10493307;28;20779;-67
2023/09/17 04:34:33;;;;;;;12.40;9.73;;;20.50;88.30;;;;;;10505561;28;20404;-67
2023/09/17 04:39:33;;;;;;;11.50;9.43;;;20.50;88.40;;;;;;10501382;28;20407;-67
2023/09/17 04:44:34;;;;;;;12.37;9.63;;;20.50;88.50;;;;;;10502811;28;20404;-67
2023/09/17 04:49:37;;;;;;;10.80;9.60;;;19.80;88.10;;;;;;10503012;28;20508;-67
2023/09/17 04:54:38;;;;;;;10.77;9.33;;;20.50;88.60;;;;;;10499786;28;20782;-67
2023/09/17 04:59:39;;;;;;;10.73;9.13;;;20.50;88.50;;;;;;10499239;28;20456;-68
2023/09/17 05:04:40;;;;;;;11.53;9.57;;;20.50;88.70;;;;;;10500068;28;20936;-68
2023/09/17 05:09:41;;;;;;;10.82;9.23;;;20.50;88.70;;;;;;10503038;28;20399;-67
2023/09/17 05:14:41;;;;;;;12.57;9.75;;;20.50;88.70;;;;;;10499558;28;20883;-67
2023/09/17 05:19:42;;;;;;;11.53;9.77;;;20.50;89.60;;;;;;10496567;28;20408;-66
2023/09/17 05:24:43;;;;;;;11.93;9.90;;;20.50;89.30;;;;;;10495391;28;20399;-66
2023/09/17 05:29:46;;;;;;;12.95;9.45;;;20.40;89.20;;;;;;10497479;28;20399;-66
2023/09/17 05:34:46;;;;;;;11.60;9.73;;;20.40;89.30;;;;;;10498083;28;20861;-67
2023/09/17 05:39:47;;;;;;;12.60;9.77;;;20.40;89.30;;;;;;10497236;28;20411;-66
2023/09/17 05:44:47;;;;;;;12.23;9.50;;;20.40;89.50;;;;;;10499168;28;20405;-67
2023/09/17 05:49:48;;;;;;;10.97;8.93;;;20.40;89.40;;;;;;10499924;28;20527;-67
2023/09/17 05:54:49;;;;;;;10.80;9.37;;;20.40;89.50;;;;;;10501813;28;20452;-66
2023/09/17 05:59:49;;;;;;;11.23;9.27;;;20.40;89.60;;;;;;10498592;28;20399;-67
2023/09/17 06:04:53;;;;;;;11.77;9.40;;;20.40;89.60;;;;;;10472842;28;20532;-67
2023/09/17 06:09:54;;;;;;;11.97;9.83;;;20.40;89.70;;;;;;10489596;28;20406;-68
2023/09/17 06:14:55;;;;;;;11.55;9.48;;;20.40;89.70;;;;;;10478692;28;20418;-67
2023/09/17 06:19:55;;;;;;;10.97;9.07;;;20.40;89.70;;;;;;10489468;28;20410;-68
2023/09/17 06:24:57;;;;;;;11.57;9.10;;;20.40;89.80;;;;;;10496725;28;20962;-67
2023/09/17 06:29:59;;;;;;;11.77;9.30;;;20.40;89.70;;;;;;10497306;28;20406;-67
2023/09/17 06:34:59;;;;;;;11.50;9.50;;;20.40;89.80;;;;;;10499547;28;20413;-67
2023/09/17 06:40:00;;;;;;;11.77;9.63;;;20.40;89.90;;;;;;10487812;28;20417;-67
2023/09/17 06:45:01;;;;;;;12.57;9.93;;;20.40;90.00;;;;;;10510296;28;20450;-67
2023/09/17 06:50:02;;;;;;;11.52;9.75;;;20.40;90.00;;;;;;10508242;28;20402;-67
2023/09/17 06:55:04;;;;;;;11.60;9.38;;;20.40;90.00;;;;;;10503582;28;20738;-68
2023/09/17 07:00:06;;;;;;;11.85;9.75;;;20.40;90.10;;;;;;10509928;28;20413;-67
2023/09/17 07:05:10;;;;;;;11.75;9.50;;;20.40;90.10;;;;;;10501958;28;20474;-65
2023/09/17 07:10:10;;;;;;;11.63;9.10;;;20.40;90.10;;;;;;10508957;28;20969;-66
2023/09/17 07:15:12;;;;;;;11.97;9.90;;;20.40;90.10;;;;;;10512365;28;20395;-67
2023/09/17 07:20:13;;;;;;;12.33;9.43;;;20.40;90.10;;;;;;10503997;28;20403;-67
2023/09/17 07:25:14;;;;;;;11.43;9.23;;;20.40;90.10;;;;;;10508061;28;20410;-66
2023/09/17 07:30:15;;;;;;;9.90;8.80;;;20.40;90.20;;;;;;10505244;28;20418;-67
2023/09/17 07:35:16;;;;;;;11.88;9.70;;;20.40;90.20;;;;;;10508515;28;20739;-66
2023/09/17 07:40:17;;;;;;;12.97;10.73;;;20.30;90.40;;;;;;10504567;28;20773;-67
2023/09/17 07:45:18;;;;;;;11.50;9.77;;;20.30;90.40;;;;;;10510728;28;20422;-67
2023/09/17 07:50:19;;;;;;;11.47;9.70;;;20.30;90.50;;;;;;10506270;28;20398;-66
2023/09/17 07:55:20;;;;;;;11.40;9.83;;;20.30;90.40;;;;;;10501091;28;20900;-67
2023/09/17 08:00:21;;;;;;;11.98;9.73;;;20.30;90.40;;;;;;10507034;28;20463;-66
2023/09/17 08:05:24;;;;;;;10.75;9.52;;;20.30;90.40;;;;;;10496489;28;20433;-65
2023/09/17 08:10:25;;;;;;;10.93;9.55;;;20.30;90.50;;;;;;10494816;28;20394;-68
2023/09/17 08:15:27;;;;;;;11.60;9.50;;;20.30;90.40;;;;;;10487958;28;20438;-66
2023/09/17 08:20:28;;;;;;;10.40;9.30;;;20.30;90.50;;;;;;10499247;28;20407;-67
2023/09/17 08:25:30;;;;;;;12.18;10.15;;;20.30;90.50;;;;;;10504212;28;20403;-68
2023/09/17 08:30:31;;;;;;;11.30;9.40;;;20.30;90.50;;;;;;10508205;28;20892;-67
2023/09/17 08:35:31;;;;;;;11.87;9.50;;;20.30;90.50;;;;;;10502174;28;20410;-68
2023/09/17 08:40:34;;;;;;;10.57;9.30;;;20.50;90.60;;;;;;10499342;28;20466;-67
2023/09/17 08:45:35;;;;;;;11.23;9.37;;;20.30;90.60;;;;;;10502569;28;20391;-67
2023/09/17 08:50:36;;;;;;;11.43;9.23;;;20.30;90.60;;;;;;10506689;28;20919;-67
2023/09/17 08:55:37;;;;;;;10.93;9.30;;;20.30;90.60;;;;;;10505372;28;20493;-68
2023/09/17 09:00:39;;;;;;;12.47;10.00;;;20.30;90.70;;;;;;10504409;28;20398;-68
2023/09/17 09:05:40;;;;;;;12.15;10.10;;;20.30;90.90;;;;;;10503239;28;20403;-68
2023/09/17 09:10:41;;;;;;;10.47;9.10;;;20.30;91.00;;;;;;10498634;28;20757;-67
2023/09/17 09:15:43;;;;;;;10.30;9.05;;;20.30;90.80;;;;;;10499310;28;20825;-68
2023/09/17 09:20:43;;;;;;;10.73;9.40;;;20.40;90.80;;;;;;10497030;28;20425;-67
2023/09/17 09:25:45;;;;;;;11.80;10.17;;;20.40;90.70;;;;;;10506854;28;20405;-68
2023/09/17 09:30:45;;;;;;;9.90;8.80;;;20.50;90.70;;;;;;10505383;28;20806;-69
2023/09/17 09:35:46;;;;;;;11.40;9.70;;;20.50;90.70;;;;;;10502042;28;20408;-68
2023/09/17 09:40:47;;;;;;;12.13;9.53;;;20.50;90.80;;;;;;10490990;28;20922;-69
2023/09/17 09:45:49;;;;;;;11.13;9.38;;;20.50;90.80;;;;;;10497655;28;20395;-69
2023/09/17 09:50:52;;;;;;;11.43;9.30;;;20.50;90.80;;;;;;10505070;28;20408;-68
2023/09/17 09:55:52;;;;;;;10.48;8.88;;;20.50;90.90;;;;;;10498333;28;20416;-67
2023/09/17 10:00:53;;;;;;;9.73;8.73;;;20.50;91.00;;;;;;10501725;28;20414;-67
2023/09/17 10:06:04;;;;;;;10.53;9.10;;;20.50;91.00;;;;;;10503827;28;20398;-70
2023/09/17 10:11:08;;;;;;;10.00;8.83;;;20.50;91.00;;;;;;10506574;28;20400;-69
2023/09/17 10:16:09;;;;;;;9.60;8.60;;;20.50;91.00;;;;;;10494579;28;20894;-68
2023/09/17 10:21:13;;;;;;;12.00;9.53;;;20.60;91.00;;;;;;10489277;28;20413;-69
2023/09/17 10:26:15;;;;;;;11.63;9.43;;;20.60;91.30;;;;;;10508281;28;20410;-67
2023/09/17 10:31:21;;;;;;;11.30;9.00;;;20.70;91.20;;;;;;10505120;28;20764;-68
2023/09/17 10:36:23;;;;;;;12.07;9.40;;;20.70;91.20;;;;;;10488885;28;20415;-68
2023/09/17 10:41:25;;;;;;;11.52;9.13;;;20.70;91.40;;;;;;10499361;28;20405;-70
2023/09/17 10:46:28;;;;;;;10.80;9.55;;;20.80;91.30;;;;;;10498691;28;20400;-67
2023/09/17 10:51:29;;;;;;;12.23;9.97;;;20.80;91.20;;;;;;10493124;28;20398;-67
2023/09/17 10:56:31;;;;;;;11.40;10.00;;;20.80;90.90;;;;;;10501457;28;20462;-68
2023/09/17 11:01:34;;;;;;;11.63;9.80;;;20.90;91.10;;;;;;10501772;28;20406;-67
2023/09/17 11:06:37;;;;;;;11.32;9.90;;;20.90;91.20;;;;;;10492619;28;20406;-67
2023/09/17 11:11:38;;;;;;;12.25;9.30;;;20.90;91.30;;;;;;10498751;28;20392;-67
2023/09/17 11:16:38;;;;;;;11.65;9.65;;;21.00;91.30;;;;;;10497395;28;20395;-67
2023/09/17 11:21:47;;;;;;;12.23;10.15;;;21.00;91.10;;;;;;10501225;28;20398;-67
2023/09/17 11:26:48;;;;;;;12.60;10.40;;;21.00;91.10;;;;;;10495546;28;20416;-67
2023/09/17 11:31:52;;;;;;;11.75;9.95;;;21.10;91.30;;;;;;10510933;28;20414;-68
2023/09/17 11:36:53;;;;;;;13.13;10.63;;;21.10;91.10;;;;;;10509164;28;20529;-68
2023/09/17 11:42:03;;;;;;;12.47;10.27;;;21.10;91.20;;;;;;10512535;28;20797;-68
2023/09/17 11:47:05;;;;;;;12.18;10.27;;;21.10;91.10;;;;;;10507687;28;20396;-68
2023/09/17 11:52:11;;;;;;;14.80;11.50;;;21.10;91.30;;;;;;10509128;28;20456;-67
2023/09/17 11:57:12;;;;;;;14.65;11.65;;;21.10;92.40;;;;;;10503752;28;20408;-66
2023/09/17 12:02:12;;;;;;;13.37;10.47;;;21.10;91.90;;;;;;10493287;28;20402;-66
2023/09/17 12:07:14;;;;;;;12.83;11.33;;;21.10;91.70;;;;;;10502694;28;20398;-66
2023/09/17 12:12:20;;;;;;;13.82;10.93;;;21.10;91.70;;;;;;10503749;28;20399;-65
2023/09/17 12:17:21;;;;;;;12.20;10.43;;;21.10;91.70;;;;;;10503682;28;20923;-67
2023/09/17 12:22:23;;;;;;;11.90;10.30;;;21.10;91.50;;;;;;10497302;28;20405;-66
2023/09/17 12:32:34;;;;;;;11.30;9.90;;;21.10;91.40;;;;;;10498927;28;20756;-66
2023/09/17 12:37:34;;;;;;;11.73;10.27;;;21.10;91.30;;;;;;10515702;28;20417;-68
2023/09/17 12:42:35;;;;;;;12.35;10.40;;;21.10;91.20;;;;;;10509669;28;20898;-67
2023/09/17 12:47:36;;;;;;;12.48;10.57;;;21.20;91.20;;;;;;10514498;28;20417;-71
2023/09/17 12:52:37;;;;;;;12.50;10.90;;;21.20;91.20;;;;;;10501387;28;20484;-68
2023/09/17 12:57:39;;;;;;;12.73;10.90;;;21.20;91.30;;;;;;10495161;28;20746;-66
2023/09/17 13:02:40;;;;;;;12.63;10.95;;;21.20;91.20;;;;;;10498946;28;20407;-67
2023/09/17 13:07:41;;;;;;;28.40;20.53;;;21.20;91.20;;;;;;10484892;28;20949;-69
2023/09/17 13:12:45;;;;;;;39.57;26.70;;;21.10;94.10;;;;;;10491819;28;20405;-69
2023/09/17 13:17:45;;;;;;;42.30;29.03;;;21.10;97.30;;;;;;10491847;28;20439;-69
2023/09/17 13:22:48;;;;;;;46.53;29.70;;;21.10;98.50;;;;;;10482645;28;20882;-72
2023/09/17 13:27:48;;;;;;;43.80;28.47;;;21.10;99.30;;;;;;10491833;28;20403;-70
2023/09/17 13:32:50;;;;;;;47.15;30.23;;;21.10;99.50;;;;;;10490124;28;20417;-70
2023/09/17 13:37:51;;;;;;;47.43;30.77;;;21.10;99.90;;;;;;10489115;28;21167;-70
2023/09/17 13:42:55;;;;;;;46.72;30.63;;;21.10;99.90;;;;;;10488862;28;20423;-69
2023/09/17 13:47:55;;;;;;;46.72;30.98;;;21.10;99.90;;;;;;10493330;28;20409;-72
2023/09/17 13:52:56;;;;;;;44.83;30.08;;;21.20;99.90;;;;;;10483233;28;20428;-69
2023/09/17 13:57:57;;;;;;;45.83;30.85;;;21.30;99.90;;;;;;10483520;28;20478;-70
2023/09/17 14:03:01;;;;;;;46.00;31.17;;;21.40;99.90;;;;;;10491446;28;20419;-70
2023/09/17 14:08:02;;;;;;;50.03;31.25;;;21.40;99.90;;;;;;10491033;28;20919;-70
2023/09/17 14:13:04;;;;;;;50.17;31.55;;;21.40;99.90;;;;;;10490082;28;20486;-70
2023/09/17 14:18:05;;;;;;;50.95;31.05;;;21.50;99.90;;;;;;10479629;28;20396;-70
2023/09/17 14:23:08;;;;;;;45.92;29.10;;;21.50;99.90;;;;;;10481149;28;20461;-70
2023/09/17 14:28:09;;;;;;;42.60;28.10;;;21.40;99.90;;;;;;10481095;28;21018;-70
2023/09/17 14:33:09;;;;;;;44.45;28.40;;;21.40;99.90;;;;;;10490252;28;20697;-71
2023/09/17 14:38:10;;;;;;;45.05;28.02;;;22.40;99.90;;;;;;10494528;28;20395;-72
2023/09/17 14:43:12;;;;;;;46.13;27.15;;;21.50;99.90;;;;;;10492505;28;20506;-72
2023/09/17 14:48:12;;;;;;;43.20;27.13;;;21.50;99.90;;;;;;10489497;28;20395;-71
2023/09/17 14:53:13;;;;;;;40.50;25.27;;;21.50;99.90;;;;;;10494919;28;20791;-74
2023/09/17 14:58:16;;;;;;;38.55;24.90;;;21.40;99.90;;;;;;10484667;28;20403;-72
2023/09/17 15:03:17;;;;;;;40.95;24.63;;;21.40;99.90;;;;;;10489340;28;20498;-72
2023/09/17 15:08:17;;;;;;;39.27;24.07;;;21.40;99.90;;;;;;10491970;28;20408;-72
2023/09/17 15:13:18;;;;;;;39.43;24.07;;;21.50;99.90;;;;;;10494144;28;20629;-72
2023/09/17 15:18:19;;;;;;;39.60;24.23;;;21.50;99.90;;;;;;10496455;28;20593;-72
2023/09/17 15:23:19;;;;;;;37.37;23.20;;;21.60;99.90;;;;;;10493656;28;20411;-72
2023/09/17 15:28:20;;;;;;;38.63;22.80;;;21.60;99.90;;;;;;10501354;28;20408;-72
2023/09/17 15:33:21;;;;;;;35.53;21.70;;;21.50;99.90;;;;;;10491001;28;20411;-72
2023/09/17 15:38:21;;;;;;;34.90;21.77;;;21.60;99.90;;;;;;10494929;28;20709;-71
2023/09/17 15:43:22;;;;;;;34.40;20.60;;;21.60;99.90;;;;;;10505514;28;20447;-71
2023/09/17 15:48:23;;;;;;;34.10;21.23;;;21.70;99.90;;;;;;10501724;28;20433;-71
2023/09/17 15:53:24;;;;;;;37.20;21.13;;;21.60;99.90;;;;;;10502761;28;20412;-71
2023/09/17 15:58:24;;;;;;;35.30;21.37;;;21.60;99.90;;;;;;10504088;28;20405;-71
2023/09/17 16:03:25;;;;;;;33.10;20.07;;;21.60;99.90;;;;;;10496750;28;20834;-70
2023/09/17 16:08:26;;;;;;;35.27;20.80;;;21.60;99.90;;;;;;10500195;28;20401;-70
2023/09/17 16:13:26;;;;;;;34.30;21.00;;;21.60;99.90;;;;;;10483009;28;21272;-70
2023/09/17 16:18:27;;;;;;;33.90;20.53;;;21.60;99.90;;;;;;10498002;28;20414;-70
2023/09/17 16:23:27;;;;;;;33.70;20.77;;;21.60;99.90;;;;;;10489936;28;20919;-71
2023/09/17 16:28:28;;;;;;;32.33;19.90;;;21.50;99.90;;;;;;10500038;28;20500;-70
2023/09/17 16:33:29;;;;;;;35.42;20.13;;;21.50;99.90;;;;;;10496365;28;20456;-71
2023/09/17 16:38:29;;;;;;;33.50;20.33;;;21.40;99.90;;;;;;10500424;28;20402;-72
2023/09/17 16:43:30;;;;;;;30.13;18.83;;;21.40;99.90;;;;;;10496916;28;20415;-69
2023/09/17 16:48:31;;;;;;;30.23;19.40;;;21.40;99.90;;;;;;10496215;28;20476;-69
2023/09/17 16:53:31;;;;;;;27.13;17.30;;;21.40;99.90;;;;;;10495574;28;20406;-69
2023/09/17 16:58:37;;;;;;;24.95;16.60;;;21.40;99.90;;;;;;10497464;28;20402;-69
2023/09/17 17:03:38;;;;;;;24.23;16.23;;;21.50;99.90;;;;;;10497806;28;20406;-69
2023/09/17 17:08:38;;;;;;;24.77;16.35;;;21.50;99.90;;;;;;10499753;28;20395;-69
2023/09/17 17:13:39;;;;;;;26.03;17.30;;;21.50;99.90;;;;;;10492393;28;20461;-74
2023/09/17 17:18:39;;;;;;;23.47;15.83;;;21.50;99.90;;;;;;10491952;28;20501;-71
2023/09/17 17:23:40;;;;;;;23.77;15.30;;;21.50;99.90;;;;;;10493902;28;20776;-71
2023/09/17 17:28:41;;;;;;;20.37;15.07;;;21.50;99.80;;;;;;10499204;28;20408;-71
2023/09/17 17:33:41;;;;;;;21.13;14.87;;;21.50;99.70;;;;;;10502808;28;20403;-71
2023/09/17 17:38:42;;;;;;;20.70;14.17;;;21.50;99.70;;;;;;10500385;28;20436;-72
2023/09/17 17:43:43;;;;;;;20.93;14.50;;;21.50;99.50;;;;;;10491406;28;20465;-71
2023/09/17 17:48:44;;;;;;;26.30;16.10;;;21.40;99.50;;;;;;10491180;28;20391;-72
2023/09/17 17:53:44;;;;;;;29.20;18.70;;;21.40;99.90;;;;;;10497183;28;20490;-72
2023/09/17 17:58:45;;;;;;;31.10;19.85;;;21.30;99.90;;;;;;10487948;28;20399;-70
2023/09/17 18:03:45;;;;;;;32.70;21.27;;;21.30;99.90;;;;;;10493147;28;20497;-72
2023/09/17 18:08:46;;;;;;;31.63;19.60;;;21.20;99.90;;;;;;10486642;28;20390;-69
2023/09/17 18:13:48;;;;;;;31.52;19.63;;;21.10;99.90;;;;;;10469720;28;20404;-71
2023/09/17 18:18:48;;;;;;;30.17;19.27;;;21.20;99.90;;;;;;10477562;28;20831;-71
2023/09/17 18:23:49;;;;;;;27.37;18.33;;;21.20;99.90;;;;;;10477890;28;20474;-69
2023/09/17 18:28:49;;;;;;;28.73;18.73;;;21.30;99.90;;;;;;10485603;28;20951;-69
2023/09/17 18:33:50;;;;;;;26.03;17.67;;;21.30;99.90;;;;;;10487218;28;20441;-69
2023/09/17 18:38:50;;;;;;;25.45;16.20;;;21.30;99.90;;;;;;10489253;28;20392;-69
2023/09/17 18:43:51;;;;;;;23.88;15.98;;;21.30;99.90;;;;;;10486996;28;20420;-70
2023/09/17 18:48:52;;;;;;;22.00;15.60;;;21.30;99.90;;;;;;10486302;28;20785;-70
2023/09/17 18:53:53;;;;;;;22.43;14.93;;;21.30;99.80;;;;;;10491005;28;20402;-69
2023/09/17 18:58:54;;;;;;;21.70;14.97;;;21.30;99.60;;;;;;10490308;28;20893;-69
2023/09/17 19:03:54;;;;;;;20.30;14.23;;;21.30;99.50;;;;;;10490370;28;20430;-70
2023/09/17 19:08:56;;;;;;;21.00;14.10;;;21.30;99.40;;;;;;10486615;28;20892;-69
2023/09/17 19:13:56;;;;;;;20.23;13.98;;;21.30;99.30;;;;;;10490792;28;20404;-69
2023/09/17 19:18:57;;;;;;;20.63;14.05;;;21.30;99.30;;;;;;10485148;28;20727;-70
2023/09/17 19:23:58;;;;;;;18.38;13.43;;;21.30;99.20;;;;;;10477999;28;20501;-69
2023/09/17 19:28:59;;;;;;;17.80;13.32;;;21.20;99.10;;;;;;10482459;28;20492;-70
2023/09/17 19:34:00;;;;;;;19.17;13.23;;;21.20;99.10;;;;;;10485311;28;20420;-70
2023/09/17 19:39:02;;;;;;;19.00;13.55;;;21.20;99.00;;;;;;10486681;28;20398;-70
2023/09/17 19:44:03;;;;;;;17.10;12.93;;;21.20;99.00;;;;;;10492068;28;21125;-69
2023/09/17 19:49:04;;;;;;;17.93;13.20;;;21.20;98.90;;;;;;10482690;28;20439;-70
2023/09/17 19:54:06;;;;;;;18.93;13.00;;;21.20;98.90;;;;;;10501199;28;20839;-69
2023/09/17 19:59:07;;;;;;;19.00;13.20;;;21.10;98.80;;;;;;10492772;28;20441;-68
2023/09/17 20:04:08;;;;;;;17.60;12.43;;;21.10;98.80;;;;;;10503371;28;20393;-69
2023/09/17 20:09:11;;;;;;;18.77;13.37;;;21.10;98.70;;;;;;10500422;28;20388;-70
2023/09/17 20:14:11;;;;;;;17.38;12.48;;;21.10;98.70;;;;;;10488399;28;20965;-68
2023/09/17 20:19:12;;;;;;;17.50;12.57;;;21.10;98.70;;;;;;10487459;28;20612;-69
2023/09/17 20:24:13;;;;;;;18.42;13.02;;;21.10;98.60;;;;;;10482646;28;20394;-71
2023/09/17 20:29:14;;;;;;;14.23;11.43;;;21.10;98.70;;;;;;10498141;28;20411;-68
2023/09/17 20:34:14;;;;;;;14.40;11.07;;;21.10;98.50;;;;;;10504398;28;20465;-69
2023/09/17 20:39:16;;;;;;;15.30;11.48;;;21.00;98.50;;;;;;10507064;28;20442;-71
2023/09/17 20:44:17;;;;;;;15.63;11.47;;;21.10;98.50;;;;;;10500167;28;20819;-68
2023/09/17 20:49:17;;;;;;;16.43;11.63;;;21.00;98.50;;;;;;10492112;28;20423;-71
2023/09/17 20:54:18;;;;;;;14.10;10.63;;;21.00;98.40;;;;;;10499602;28;21077;-68
2023/09/17 20:59:19;;;;;;;14.73;11.20;;;21.00;98.40;;;;;;10499779;28;20423;-70
2023/09/17 21:04:19;;;;;;;14.40;10.57;;;21.00;98.40;;;;;;10498184;28;20400;-70
2023/09/17 21:09:27;;;;;;;13.27;10.90;;;21.00;98.30;;;;;;10482959;28;20482;-69
2023/09/17 21:14:27;;;;;;;12.63;10.10;;;21.00;98.30;;;;;;10494984;28;20461;-69
2023/09/17 21:19:28;;;;;;;13.02;10.25;;;21.00;98.30;;;;;;10496914;28;20834;-69
2023/09/17 21:24:30;;;;;;;13.13;10.50;;;20.90;98.30;;;;;;10497238;28;20389;-68
2023/09/17 21:29:31;;;;;;;13.52;10.00;;;20.90;98.30;;;;;;10497474;28;20550;-68
2023/09/17 21:34:33;;;;;;;12.25;9.70;;;20.90;98.20;;;;;;10495867;28;20425;-69
2023/09/17 21:39:34;;;;;;;12.70;10.00;;;20.90;98.20;;;;;;10505463;28;20409;-67
2023/09/17 21:44:34;;;;;;;13.00;10.23;;;20.90;98.20;;;;;;10489709;28;20765;-69
2023/09/17 21:49:35;;;;;;;11.00;9.07;;;20.80;98.20;;;;;;10490944;28;20403;-69
2023/09/17 21:54:38;;;;;;;11.90;10.05;;;20.90;98.20;;;;;;10496951;28;20420;-69
2023/09/17 21:59:38;;;;;;;12.47;9.23;;;20.80;98.20;;;;;;10502486;28;20507;-69
2023/09/17 22:04:39;;;;;;;13.20;10.03;;;20.80;98.20;;;;;;10485741;28;20865;-69
2023/09/17 22:09:40;;;;;;;11.63;9.27;;;20.80;98.20;;;;;;10477161;28;20404;-68
2023/09/17 22:14:41;;;;;;;11.90;9.33;;;20.80;98.20;;;;;;10474967;28;20797;-69
2023/09/17 22:19:48;;;;;;;11.10;9.23;;;20.80;98.20;;;;;;10483191;28;20876;-69
2023/09/17 22:24:49;;;;;;;10.45;8.73;;;20.80;98.20;;;;;;10493493;28;20404;-69
2023/09/17 22:29:49;;;;;;;10.53;8.77;;;20.80;98.20;;;;;;10501658;28;20394;-69
2023/09/17 22:34:53;;;;;;;11.47;9.00;;;20.80;98.20;;;;;;10506870;28;20420;-69
2023/09/17 22:39:53;;;;;;;10.10;8.70;;;20.80;98.20;;;;;;10500697;28;20856;-69
2023/09/17 22:44:54;;;;;;;11.33;8.80;;;20.80;98.20;;;;;;10497056;28;20405;-69
2023/09/17 22:49:55;;;;;;;10.77;8.63;;;20.80;98.20;;;;;;10495067;28;20398;-69
2023/09/17 22:54:56;;;;;;;10.40;8.73;;;20.80;98.20;;;;;;10494343;28;20410;-69
2023/09/17 22:59:56;;;;;;;10.50;8.80;;;20.70;98.20;;;;;;10491414;28;20410;-69
2023/09/17 23:04:57;;;;;;;9.87;8.30;;;20.70;98.20;;;;;;10496019;28;20741;-68
2023/09/17 23:09:57;;;;;;;10.40;8.77;;;20.70;98.20;;;;;;10497173;28;20402;-69
2023/09/17 23:14:58;;;;;;;10.47;8.53;;;20.70;98.20;;;;;;10495982;28;20459;-69
2023/09/17 23:19:59;;;;;;;10.37;8.70;;;20.70;98.20;;;;;;10496226;28;20408;-69
2023/09/17 23:24:59;;;;;;;11.40;8.80;;;20.70;98.10;;;;;;10500253;28;20739;-69
2023/09/17 23:30:00;;;;;;;10.48;8.55;;;20.70;98.10;;;;;;10499540;28;20410;-69
2023/09/17 23:35:04;;;;;;;10.73;8.40;;;20.70;98.10;;;;;;10505787;28;20409;-69
2023/09/17 23:40:06;;;;;;;10.40;8.40;;;20.70;98.00;;;;;;10501658;28;20703;-69
2023/09/17 23:45:07;;;;;;;10.43;8.35;;;20.70;98.10;;;;;;10505169;28;20426;-69
2023/09/17 23:50:09;;;;;;;10.25;8.38;;;20.70;98.00;;;;;;10502605;28;20492;-69
2023/09/17 23:55:10;;;;;;;10.25;8.32;;;20.70;98.00;;;;;;10501323;28;20406;-69
